Tiempo atmosférico en la estación meteorológica de Lorca, Zarcilla de Ramos, Murcia (674 m.)



Fecha
DESCASC
Temp. máxima en grados centígrados (hora)
DESCASC
Temp. mínima en grados centígrados (hora)
DESCASC
Temp. media en grados centígrados
DESCASC
Racha de viento máxima en m/sg (hora)
DESCASC
Velocidad máxima media en intervalos de 10 minutos(hora)
DESCASC
Precipitaciones diarias en mm
DESCASC
Precipitaciones de 00:00 a 06:00 en mm
DESCASC
Precipitaciones de 06:00 a 12:00 en mm
DESCASC
Precipitaciones de 12:00 a 18:00 en mm
DESCASC
Precipitaciones de 18:00 a 24:00 en mm
DESCASC
13-01-2021 16.8 (15:50) 2.6 (00:20) 9.7 8.89 (03:10) 6.39 (03:10) 0 0 0 0 0
12-01-2021 12.2 (16:00) -0.3 (02:00) 5.9 8.61 (22:40) 6.39 (22:30) 0 0 0 0 0
11-01-2021 8.4 (15:20) 0.8 (23:40) 4.6 6.11 (09:40) 4.17 (04:20) 0 0 0 0 0
10-01-2021 8 (17:00) 1.4 (01:50) 4.7 6.94 (06:40) 4.72 (06:20) 0.4 0 0.4 0 0
09-01-2021 11.3 (15:40) 1.9 (00:00) 6.6 9.17 (18:10) 5.56 (18:10) 3.4 3.2 0.2 0 0
08-01-2021 3.5 (15:20) 0.7 (00:00) 2.1 7.5 (07:20) 4.72 (07:10) 17 8.4 3.6 1.8 3.2
07-01-2021 3.7 (00:00) 0.7 (00:00) 2.2 8.61 (03:20) 5 (03:50) 14.6 5.2 5.6 2.4 1.4
06-01-2021 8.9 (14:00) 0.6 (00:00) 4.7 5.56 (16:30) 3.61 (00:10) 3.2 0 0 0 3.2
05-01-2021 8.3 (14:40) -2.1 (-00:0) 3.1 6.39 (07:30) 3.89 (12:00) 0 0 0 0 0
04-01-2021 10.3 (16:30) -2.4 (-00:0) 4 10.83 (12:10) 6.94 (12:10) 0 0 0 0 0
03-01-2021 8.9 (16:30) 0.4 (00:00) 4.6 13.33 (11:40) 7.5 (13:30) 0 0 0 0 0
02-01-2021 7.7 (15:00) -0.4 (00:00) 3.6 13.06 (11:20) 8.33 (17:00) 0 0 0 0 0
01-01-2021 8.8 (13:20) -0.4 (00:00) 4.2 13.89 (03:30) 9.17 (13:50) 0.6 0 0.6 0 0
31-12-2020 12.4 (15:20) -1.8 (-00:0) 5.3 11.39 (23:59) 6.94 (23:59) 0 0 0 0 0
30-12-2020 11.3 (14:30) -1.6 (-00:0) 4.9 10.56 (12:40) 7.22 (13:20) 0 0 0 0 0
29-12-2020 10.8 (14:10) 0.4 (00:00) 5.6 13.89 (13:20) 8.61 (14:20) 0 0 0 0 0
28-12-2020 13.4 (13:20) 2.6 (00:00) 8 23.33 (04:20) 13.61 (04:10) 0 0 0 0 0
27-12-2020 16.2 (15:50) -2.5 (-00:0) 6.9 19.72 (23:40) 13.06 (23:50) 0 0 0 0 0
26-12-2020 9.6 (16:00) -2.8 (-00:0) 3.4 10.28 (11:20) 6.67 (12:30) 0 0 0 0 0
25-12-2020 11.8 (14:10) 1.7 (00:00) 6.8 14.44 (17:30) 9.72 (16:30) 0 0 0 0 0
24-12-2020 16.4 (15:20) 6.3 (00:00) 11.3 8.06 (04:20) 5.28 (05:20) 0 0 0 0 0
23-12-2020 21.2 (15:30) 3.9 (08:00) 12.6 6.67 (23:20) 4.44 (23:10) 0 0 0 0 0
22-12-2020 19.3 (14:40) 4 (08:20) 11.6 4.72 (14:40) 3.06 (16:40) 0 0 0 0 0
21-12-2020 18.7 (15:30) 3.1 (00:00) 10.9 5.83 (09:20) 4.17 (00:40) 0 0 0 0 0
20-12-2020 16.1 (13:40) 6.4 (00:00) 11.3 6.94 (09:50) 4.72 (09:40) 0.2 0.2 0 0 0
19-12-2020 18 (14:10) 3 (00:00) 10.5 5.83 (23:50) 4.72 (23:50) 0 0 0 0 0
18-12-2020 17.9 (15:40) 2.4 (00:00) 10.1 5.28 (16:20) 3.61 (16:30) 0 0 0 0 0

Gráficas

Temp. máximas Temp. mínimas Temp. medias Precipitaciones Rachas de viento máximas Velocidades máximas media en intervalos de 10 minutos

Datos horarios

Fecha y hora oficial Temperatura (ºC) Velocidad del viento (km/h) Dirección del viento Racha (km/h) Dirección de racha Precipitación (mm) Presión (hPa) Tendencia (hPa) Humedad (%)
2021-01-16 23:00:00 3.6 4 Sudoeste 18 Norte 0 -- -- 62
2021-01-16 22:00:00 2.9 0 Calma 12 Noroeste 0 -- -- 65
2021-01-16 21:00:00 4.2 5 Norte 13 Noroeste 0 -- -- 62
2021-01-16 20:00:00 3.3 5 Norte 9 Norte 0 -- -- 68
2021-01-16 19:00:00 6 2 Norte 7 Norte 0 -- -- 56
2021-01-16 18:00:00 11.8 6 Sudeste 14 Sur 0 -- -- 38
2021-01-16 17:00:00 14.2 10 Sudeste 15 Sur 0 -- -- 33
2021-01-16 16:00:00 13.6 8 Nordeste 17 Nordeste 0 -- -- 32
2021-01-16 15:00:00 13 10 Nordeste 16 Nordeste 0 -- -- 32
2021-01-16 14:00:00 12.3 11 Norte 24 Norte 0 -- -- 31
2021-01-16 13:00:00 11.4 15 Norte 28 Norte 0 -- -- 32
2021-01-16 12:00:00 10.4 22 Norte 38 Norte 0 -- -- 32
2021-01-16 11:00:00 8.5 17 Norte 24 Norte 0 -- -- 43
2021-01-16 10:00:00 7 19 Norte 25 Norte 0 -- -- 44
2021-01-16 09:00:00 4.1 10 Norte 18 Norte 0 -- -- 51
2021-01-16 08:00:00 4.3 8 Norte 24 Noroeste 0 -- -- 48
2021-01-16 07:00:00 6 4 Noroeste 30 Noroeste 0 -- -- 43
2021-01-16 06:00:00 9.6 18 Oeste 34 Oeste 0 -- -- 29
2021-01-16 05:00:00 9.4 15 Oeste 34 Oeste 0 -- -- 31
2021-01-16 04:00:00 8.3 14 Noroeste 28 Noroeste 0 -- -- 35
2021-01-16 03:00:00 6.4 18 Noroeste 27 Noroeste 0 -- -- 45
2021-01-16 02:00:00 7 14 Norte 23 Norte 0 -- -- 40
2021-01-16 01:00:00 7 12 Noroeste 28 Noroeste 0 -- -- 38
2021-01-16 00:00:00 7.3 19 Noroeste 30 Oeste 0 -- -- 42
2021-01-15 23:00:00 7.7 17 Noroeste 26 Noroeste 0 -- -- 45
2021-01-15 22:00:00 6.5 5 Noroeste 20 Noroeste 0 -- -- 53
2021-01-15 21:00:00 7.1 16 Norte 24 Noroeste 0 -- -- 56
2021-01-15 20:00:00 8.5 11 Norte 24 Oeste 0 -- -- 50
2021-01-15 19:00:00 10.4 15 Oeste 27 Oeste 0 -- -- 43
2021-01-15 18:00:00 12 9 Noroeste 13 Norte 0 -- -- 36
2021-01-15 17:00:00 14.4 10 Norte 21 Norte 0 -- -- 32
2021-01-15 16:00:00 15.1 11 Norte 20 Norte 0 -- -- 30
2021-01-15 15:00:00 14.9 14 Norte 19 Norte 0 -- -- 31
2021-01-15 14:00:00 14.5 8 Noroeste 15 Noroeste 0 -- -- 31
2021-01-15 13:00:00 13.3 9 Noroeste 22 Noroeste 0 -- -- 32
2021-01-15 12:00:00 11.5 13 Noroeste 27 Noroeste 0 -- -- 38
2021-01-15 11:00:00 9.5 10 Noroeste 23 Noroeste 0 -- -- 45
2021-01-15 10:00:00 7.3 9 Noroeste 28 Noroeste 0 -- -- 48
2021-01-15 09:00:00 4.5 19 Noroeste 33 Noroeste 0 -- -- 58
2021-01-15 08:00:00 3.9 16 Norte 38 Noroeste 0 -- -- 60
2021-01-15 07:00:00 4.6 17 Norte 33 Oeste 0 -- -- 59
2021-01-15 06:00:00 4.6 19 Noroeste 35 Noroeste 0 -- -- 59
2021-01-15 05:00:00 4.8 20 Noroeste 35 Noroeste 0 -- -- 58
2021-01-15 04:00:00 5.1 18 Noroeste 33 Noroeste 0 -- -- 57
2021-01-15 03:00:00 5 21 Noroeste 28 Noroeste 0 -- -- 58
2021-01-15 02:00:00 5.5 15 Noroeste 23 Noroeste 0 -- -- 54
2021-01-15 01:00:00 6.1 17 Noroeste 26 Noroeste 0 -- -- 51
2021-01-15 00:00:00 6.7 17 Noroeste 27 Oeste 0 -- -- 50
2021-01-14 23:00:00 7.6 20 Noroeste 29 Noroeste 0 -- -- 49
2021-01-14 22:00:00 7.2 13 Norte 29 Norte 0 -- -- 53
2021-01-14 21:00:00 8 19 Noroeste 25 Noroeste 0 -- -- 50
2021-01-14 20:00:00 8.1 13 Noroeste 23 Noroeste 0 -- -- 52
2021-01-14 19:00:00 9.3 12 Noroeste 21 Noroeste 0 -- -- 51
2021-01-14 18:00:00 12.3 13 Oeste 22 Oeste 0 -- -- 39
2021-01-14 17:00:00 14.6 10 Noroeste 20 Noroeste 0 -- -- 37
2021-01-14 16:00:00 16.7 8 Oeste 19 Oeste 0 -- -- 30
2021-01-14 15:00:00 15.8 9 Noroeste 18 Noroeste 0 -- -- 31
2021-01-14 14:00:00 14.3 12 Noroeste 22 Noroeste 0 -- -- 34
2021-01-14 13:00:00 13.6 6 Sudoeste 28 Noroeste 0 -- -- 36
2021-01-14 12:00:00 12.1 4 Nordeste 11 Sudeste 0 -- -- 40
2021-01-14 11:00:00 10.1 3 Sudeste 8 Nordeste 0 -- -- 41
2021-01-14 10:00:00 7 0 Calma 3 Sudeste 0 -- -- 48
2021-01-14 09:00:00 3.2 0 Calma 6 Oeste 0 -- -- 61
2021-01-14 08:00:00 2.9 2 Noroeste 9 Noroeste 0 -- -- 57
2021-01-14 07:00:00 4.1 6 Noroeste 16 Noroeste 0 -- -- 55
2021-01-14 06:00:00 3.6 5 Oeste 12 Noroeste 0 -- -- 56
2021-01-14 05:00:00 3.1 3 Norte 11 Nordeste 0 -- -- 61
2021-01-14 04:00:00 3.7 3 Noroeste 22 Noroeste 0 -- -- 57
2021-01-14 03:00:00 5.2 14 Noroeste 21 Noroeste 0 -- -- 54
2021-01-14 02:00:00 4.2 6 Noroeste 11 Noroeste 0 -- -- 58
2021-01-14 01:00:00 5.4 6 Noroeste 15 Noroeste 0 -- -- 55
2021-01-14 00:00:00 4.4 6 Noroeste 10 Noroeste 0 -- -- 59
2021-01-13 23:00:00 4.3 3 Noroeste 13 Noroeste 0 -- -- 61
2021-01-13 22:00:00 5 6 Norte 13 Norte 0 -- -- 60
2021-01-13 21:00:00 6.6 6 Noroeste 19 Noroeste 0 -- -- 54
2021-01-13 20:00:00 4 4 Noroeste 8 Noroeste 0 -- -- 74
2021-01-13 19:00:00 5.8 3 Noroeste 7 Este 0 -- -- 70
2021-01-13 18:00:00 10.9 3 Noroeste 16 Sudeste 0 -- -- 49
2021-01-13 17:00:00 16.4 6 Sur 15 Sur 0 -- -- 33
2021-01-13 16:00:00 16.6 4 Noroeste 7 Sudoeste 0 -- -- 25
2021-01-13 15:00:00 15.4 4 Nordeste 10 Sudeste 0 -- -- 30
2021-01-13 14:00:00 15.5 5 Sur 11 Sudoeste 0 -- -- 27
2021-01-13 13:00:00 13.4 6 Sudoeste 12 Sudoeste 0 -- -- 31
2021-01-13 12:00:00 11.8 3 Sur 10 Sur 0 -- -- 36
2021-01-13 11:00:00 8.2 0 Calma 6 Sur 0 -- -- 46
2021-01-13 10:00:00 6 4 Sur 12 Oeste 0 -- -- 53
2021-01-13 09:00:00 3.6 4 Oeste 23 Noroeste 0 -- -- 55
2021-01-13 08:00:00 3.1 15 Noroeste 25 Noroeste 0 -- -- 57
2021-01-13 07:00:00 3 13 Noroeste 26 Noroeste 0 -- -- 58
2021-01-13 06:00:00 3 16 Noroeste 29 Noroeste 0 -- -- 61
2021-01-13 05:00:00 3 7 Norte 27 Noroeste 0 -- -- 63
2021-01-13 04:00:00 3.3 15 Noroeste 32 Noroeste 0 -- -- 63
2021-01-13 03:00:00 3.2 18 Noroeste 30 Noroeste 0 -- -- 66
2021-01-13 02:00:00 3.3 13 Noroeste 24 Noroeste 0 -- -- 65
2021-01-13 01:00:00 3.6 9 Noroeste 32 Noroeste 0 -- -- 65
2021-01-13 00:00:00 3.9 10 Noroeste 26 Noroeste 0 -- -- 65
2021-01-12 23:00:00 3.3 13 Norte 31 Noroeste 0 -- -- 67
2021-01-12 22:00:00 4.3 17 Noroeste 30 Norte 0 -- -- 68
2021-01-12 21:00:00 4.6 15 Norte 27 Noroeste 0 -- -- 68
2021-01-12 20:00:00 4.1 3 Nordeste 19 Norte 0 -- -- 62
2021-01-12 19:00:00 5.6 12 Norte 20 Norte 0 -- -- 61
2021-01-12 18:00:00 8.6 9 Oeste 14 Oeste 0 -- -- 41
2021-01-12 17:00:00 11.8 9 Oeste 14 Oeste 0 -- -- 28
2021-01-12 16:00:00 12.2 8 Sudoeste 17 Oeste 0 -- -- 32
2021-01-12 15:00:00 11.5 9 Sudoeste 19 Noroeste 0 -- -- 35
2021-01-12 14:00:00 10.5 4 Sudoeste 24 Noroeste 0 -- -- 40
2021-01-12 13:00:00 8 16 Noroeste 24 Noroeste 0 -- -- 56
2021-01-12 12:00:00 6.4 17 Noroeste 24 Oeste 0 -- -- 65
2021-01-12 11:00:00 4.3 12 Noroeste 21 Noroeste 0 -- -- 72
2021-01-12 10:00:00 2.3 8 Norte 23 Norte 0 -- -- 77
2021-01-12 09:00:00 1.2 8 Noroeste 28 Noroeste 0 -- -- 78
2021-01-12 08:00:00 0.8 18 Noroeste 28 Noroeste 0 -- -- 80
2021-01-12 07:00:00 1 4 Noroeste 23 Noroeste 0 -- -- 79
2021-01-12 06:00:00 0.9 3 Sudoeste 21 Noroeste 0 -- -- 80
2021-01-12 05:00:00 1 0 Calma 23 Noroeste 0 -- -- 81
2021-01-12 04:00:00 1.4 19 Noroeste 26 Noroeste 0 -- -- 81
2021-01-12 03:00:00 0.1 3 Noroeste 8 Noroeste 0 -- -- 88
2021-01-12 02:00:00 -0.3 4 Oeste 14 Norte 0 -- -- 87
2021-01-12 01:00:00 0.5 8 Norte 15 Noroeste 0 -- -- 85
2021-01-12 00:00:00 1.2 11 Noroeste 15 Noroeste 0 -- -- 84
2021-01-11 23:00:00 1.8 10 Noroeste 15 Noroeste 0 -- -- 83
2021-01-11 22:00:00 1.9 11 Norte 17 Noroeste 0 -- -- 84
2021-01-11 21:00:00 2.8 9 Norte 16 Noroeste 0 -- -- 81
2021-01-11 20:00:00 4.3 10 Noroeste 13 Noroeste 0 -- -- 79
2021-01-11 19:00:00 5.5 5 Noroeste 8 Norte 0 -- -- 77
2021-01-11 18:00:00 6.1 5 Nordeste 8 Noroeste 0 -- -- 71
2021-01-11 17:00:00 6.6 6 Noroeste 14 Noroeste 0 -- -- 66
2021-01-11 16:00:00 7.3 9 Norte 14 Norte 0 -- -- 64
2021-01-11 15:00:00 7.9 2 Noroeste 10 Oeste 0 -- -- 62
2021-01-11 14:00:00 7.3 3 Norte 9 Nordeste 0 -- -- 63
2021-01-11 13:00:00 6 8 Norte 16 Noroeste 0 -- -- 68
2021-01-11 12:00:00 5.4 10 Norte 17 Noroeste 0 -- -- 74
2021-01-11 11:00:00 4.3 14 Noroeste 22 Noroeste 0 -- -- 77
2021-01-11 10:00:00 3.2 14 Noroeste 22 Noroeste 0 -- -- 81
2021-01-11 09:00:00 2.3 10 Noroeste 19 Noroeste 0 -- -- 84
2021-01-11 08:00:00 2.2 12 Noroeste 21 Noroeste 0 -- -- 84
2021-01-11 07:00:00 2.1 13 Noroeste 21 Noroeste 0 -- -- 84
2021-01-11 06:00:00 2 13 Noroeste 21 Noroeste 0 -- -- 85
2021-01-11 05:00:00 1.9 12 Noroeste 20 Noroeste 0 -- -- 84
2021-01-11 04:00:00 1.6 12 Norte 19 Noroeste 0 -- -- 84
2021-01-11 03:00:00 1.5 14 Noroeste 18 Noroeste 0 -- -- 83
2021-01-11 02:00:00 2.6 13 Noroeste 18 Noroeste 0 -- -- 81
2021-01-11 01:00:00 3.2 10 Noroeste 16 Noroeste 0 -- -- 80
2021-01-11 00:00:00 3 7 Noroeste 17 Noroeste 0 -- -- 84
2021-01-10 23:00:00 2.7 8 Noroeste 15 Norte 0 -- -- 87
2021-01-10 22:00:00 2.7 9 Noroeste 18 Noroeste 0 -- -- 87
2021-01-10 21:00:00 2.2 10 Noroeste 15 Noroeste 0 -- -- 88
2021-01-10 20:00:00 3.2 9 Noroeste 15 Norte 0 -- -- 85
2021-01-10 19:00:00 4 9 Norte 18 Norte 0 -- -- 83
2021-01-10 18:00:00 5.4 4 Nordeste 11 Este 0 -- -- 80
2021-01-10 17:00:00 8 0 Calma 9 Norte 0 -- -- 62
2021-01-10 16:00:00 6.7 4 Nordeste 15 Norte 0 -- -- 70
2021-01-10 15:00:00 5.8 9 Norte 18 Norte 0 -- -- 77
2021-01-10 14:00:00 4.7 9 Norte 16 Norte 0 -- -- 79
2021-01-10 13:00:00 4.5 6 Noroeste 17 Norte 0 -- -- 81
2021-01-10 12:00:00 4.3 13 Norte 18 Norte 0 -- -- 81
2021-01-10 11:00:00 3.3 10 Noroeste 18 Norte 0 -- -- 83
2021-01-10 10:00:00 2.3 12 Noroeste 21 Noroeste 0 -- -- 90
2021-01-10 09:00:00 1.5 9 Norte 19 Noroeste 0.4 -- -- 91
2021-01-10 08:00:00 1.8 12 Noroeste 24 Noroeste 0 -- -- 86
2021-01-10 07:00:00 1.7 17 Noroeste 25 Noroeste 0 -- -- 87
2021-01-10 06:00:00 2.4 15 Noroeste 22 Noroeste 0 -- -- 85
2021-01-10 05:00:00 2.8 11 Noroeste 18 Noroeste 0 -- -- 83
2021-01-10 04:00:00 2.7 10 Noroeste 17 Noroeste 0 -- -- 81
2021-01-10 03:00:00 1.6 4 Oeste 17 Noroeste 0 -- -- 88
2021-01-10 02:00:00 1.5 5 Noroeste 13 Noroeste 0 -- -- 88
2021-01-10 01:00:00 1.9 9 Noroeste 15 Noroeste 0 -- -- 85
2021-01-10 00:00:00 1.9 8 Noroeste 16 Noroeste 0 -- -- 85
2021-01-09 23:00:00 2.2 11 Noroeste 17 Noroeste 0 -- -- 84
2021-01-09 22:00:00 2.1 11 Noroeste 19 Noroeste 0 -- -- 84
2021-01-09 21:00:00 2.6 12 Noroeste 24 Noroeste 0 -- -- 77
2021-01-09 20:00:00 2.6 13 Norte 19 Noroeste 0 -- -- 76
2021-01-09 19:00:00 5.8 9 Oeste 33 Oeste 0 -- -- 51
2021-01-09 18:00:00 6.9 18 Oeste 33 Oeste 0 -- -- 55
2021-01-09 17:00:00 8.2 17 Oeste 30 Oeste 0 -- -- 53
2021-01-09 16:00:00 10 4 Sur 10 Sur 0 -- -- 66
2021-01-09 15:00:00 10.3 4 Sudeste 11 Sudeste 0 -- -- 71
2021-01-09 14:00:00 9.9 8 Sur 16 Sudeste 0 -- -- 81
2021-01-09 13:00:00 8.2 3 Sur 12 Sudeste 0 -- -- 90
2021-01-09 12:00:00 6.1 0 Calma 4 Noroeste 0 -- -- 96
2021-01-09 11:00:00 4.9 3 Nordeste 7 Noroeste 0 -- -- 96
2021-01-09 10:00:00 3.9 0 Calma 8 Noroeste 0 -- -- 95
2021-01-09 09:00:00 3.3 7 Norte 15 Noroeste 0 -- -- 95
2021-01-09 08:00:00 3.4 4 Norte 7 Norte 0.2 -- -- 95
2021-01-09 07:00:00 3.3 6 Norte 10 Norte 0 -- -- 96
2021-01-09 06:00:00 3.4 8 Norte 12 Norte 0 -- -- 96
2021-01-09 05:00:00 3.5 2 Nordeste 12 Noroeste 0.6 -- -- 96
2021-01-09 04:00:00 3.2 8 Noroeste 13 Norte 0.2 -- -- 95
2021-01-09 03:00:00 3.4 9 Noroeste 13 Noroeste 0.8 -- -- 95
2021-01-09 02:00:00 4 5 Oeste 14 Sudoeste 0.6 -- -- 96
2021-01-09 01:00:00 3.5 5 Sudoeste 11 Oeste 1 -- -- 97
2021-01-09 00:00:00 3.3 2 Sur 5 Este 0.6 -- -- 96
2021-01-08 23:00:00 3.5 3 Sudoeste 11 Noroeste 0.4 -- -- 96
2021-01-08 22:00:00 3.3 6 Noroeste 11 Noroeste 0.8 -- -- 95
2021-01-08 21:00:00 3.5 3 Sur 13 Oeste 0.6 -- -- 95
2021-01-08 20:00:00 3.2 4 Noroeste 14 Noroeste 0.4 -- -- 94
2021-01-08 19:00:00 3 11 Noroeste 19 Noroeste 0.4 -- -- 94
2021-01-08 18:00:00 3.1 11 Noroeste 19 Noroeste 0.4 -- -- 94
2021-01-08 17:00:00 2.8 12 Noroeste 17 Noroeste 0.2 -- -- 94
2021-01-08 16:00:00 3.2 10 Noroeste 22 Noroeste 0.4 -- -- 93
2021-01-08 15:00:00 3.3 17 Noroeste 26 Noroeste 0.2 -- -- 93
2021-01-08 14:00:00 3.3 12 Noroeste 19 Noroeste 0 -- -- 92
2021-01-08 13:00:00 3 12 Noroeste 18 Noroeste 0.6 -- -- 91
2021-01-08 12:00:00 2.9 13 Noroeste 23 Noroeste 0.6 -- -- 91
2021-01-08 11:00:00 2.5 12 Noroeste 20 Noroeste 1.2 -- -- 91
2021-01-08 10:00:00 2.1 12 Noroeste 21 Noroeste 0.8 -- -- 92
2021-01-08 09:00:00 1.6 13 Noroeste 22 Noroeste 0.6 -- -- 92
2021-01-08 08:00:00 1.5 15 Noroeste 27 Noroeste 0 -- -- 91
2021-01-08 07:00:00 1.4 15 Noroeste 23 Noroeste 0.4 -- -- 91
2021-01-08 06:00:00 1.4 14 Noroeste 23 Noroeste 0 -- -- 92
2021-01-08 05:00:00 1.2 15 Noroeste 24 Noroeste 0.6 -- -- 92
2021-01-08 04:00:00 1.2 15 Noroeste 26 Noroeste 1 -- -- 93
2021-01-08 03:00:00 0.9 9 Norte 19 Noroeste 1.8 -- -- 94
2021-01-08 02:00:00 0.8 9 Norte 14 Noroeste 2.4 -- -- 95
2021-01-08 01:00:00 0.8 10 Norte 22 Noroeste 2.6 -- -- 94
2021-01-08 00:00:00 1.6 14 Noroeste 30 Noroeste 1 -- -- 92
2021-01-07 23:00:00 1.6 13 Norte 23 Noroeste 0.4 -- -- 93
2021-01-07 22:00:00 2 15 Norte 21 Noroeste 0 -- -- 91
2021-01-07 21:00:00 2.1 10 Norte 19 Norte 0 -- -- 91
2021-01-07 20:00:00 2.1 10 Norte 22 Noroeste 0 -- -- 91
2021-01-07 19:00:00 2 13 Noroeste 22 Noroeste 0 -- -- 92
2021-01-07 18:00:00 2.3 14 Noroeste 21 Noroeste 0 -- -- 93
2021-01-07 17:00:00 2.6 11 Noroeste 18 Noroeste 0 -- -- 92
2021-01-07 16:00:00 2.8 12 Noroeste 20 Noroeste 0.8 -- -- 91
2021-01-07 15:00:00 3 7 Noroeste 16 Noroeste 0.2 -- -- 92
2021-01-07 14:00:00 2.9 10 Noroeste 16 Noroeste 1 -- -- 92
2021-01-07 13:00:00 2.6 5 Noroeste 9 Noroeste 0.4 -- -- 93
2021-01-07 12:00:00 2.2 5 Noroeste 9 Noroeste 0.6 -- -- 93
2021-01-07 11:00:00 1.7 8 Noroeste 15 Noroeste 0.6 -- -- 93
2021-01-07 10:00:00 1.1 10 Noroeste 15 Noroeste 1.2 -- -- 93
2021-01-07 09:00:00 1 11 Noroeste 17 Noroeste 1.2 -- -- 92
2021-01-07 08:00:00 0.8 10 Noroeste 22 Noroeste 1.2 -- -- 92
2021-01-07 07:00:00 1 13 Noroeste 22 Noroeste 0.8 -- -- 92
2021-01-07 06:00:00 0.7 12 Noroeste 22 Noroeste 0.8 -- -- 92
2021-01-07 05:00:00 1.5 14 Noroeste 26 Noroeste 0.4 -- -- 89
2021-01-07 04:00:00 2.2 16 Noroeste 31 Norte 0.6 -- -- 89
2021-01-07 03:00:00 2.3 14 Noroeste 22 Noroeste 1.2 -- -- 91
2021-01-07 02:00:00 3 6 Noroeste 14 Noroeste 0.8 -- -- 90
2021-01-07 01:00:00 3.2 8 Noroeste 11 Noroeste 1.4 -- -- 89
2021-01-07 00:00:00 3.7 2 Oeste 6 Nordeste 1.4 -- -- 88
2021-01-06 23:00:00 3.9 2 Noroeste 8 Oeste 1.4 -- -- 85
2021-01-06 22:00:00 4.5 3 Oeste 5 Oeste 0.4 -- -- 76
2021-01-06 21:00:00 5.1 2 Este 13 Este 0 -- -- 63
2021-01-06 20:00:00 5.6 8 Sudeste 14 Este 0 -- -- 64
2021-01-06 19:00:00 5.7 9 Sudeste 15 Este 0 -- -- 63
2021-01-06 18:00:00 6 13 Este 17 Este 0 -- -- 58
2021-01-06 17:00:00 6.9 10 Este 20 Este 0 -- -- 54
2021-01-06 16:00:00 7.3 10 Este 19 Este 0 -- -- 52
2021-01-06 15:00:00 8 10 Sudeste 19 Sudeste 0 -- -- 50
2021-01-06 14:00:00 8.9 8 Sudeste 16 Sudeste 0 -- -- 49
2021-01-06 13:00:00 8.2 5 Este 18 Sudeste 0 -- -- 50
2021-01-06 12:00:00 6.2 4 Sur 8 Sudoeste 0 -- -- 52
2021-01-06 11:00:00 4.9 3 Sur 5 Sur 0 -- -- 48
2021-01-06 10:00:00 3.2 3 Noroeste 9 Noroeste 0 -- -- 55
2021-01-06 09:00:00 1.1 0 Calma 3 Este 0 -- -- 59
2021-01-06 08:00:00 1.1 2 Noroeste 6 Oeste 0 -- -- 59
2021-01-06 07:00:00 1.6 7 Noroeste 14 Noroeste 0 -- -- 57
2021-01-06 06:00:00 1.4 10 Noroeste 13 Noroeste 0 -- -- 57
2021-01-06 05:00:00 1.7 6 Oeste 16 Noroeste 0 -- -- 54
2021-01-06 04:00:00 1.8 9 Noroeste 15 Noroeste 0 -- -- 54
2021-01-06 03:00:00 2.2 12 Noroeste 15 Noroeste 0 -- -- 54
2021-01-06 02:00:00 2.1 9 Noroeste 12 Noroeste 0 -- -- 56
2021-01-06 01:00:00 1.2 7 Noroeste 17 Noroeste 0 -- -- 58
2021-01-06 00:00:00 1.5 12 Noroeste 16 Noroeste 0 -- -- 54
2021-01-05 23:00:00 2.4 10 Noroeste 15 Noroeste 0 -- -- 52
2021-01-05 22:00:00 2.8 10 Noroeste 14 Norte 0 -- -- 54
2021-01-05 21:00:00 3.7 6 Noroeste 12 Noroeste 0 -- -- 50
2021-01-05 20:00:00 4.4 0 Calma 4 Sur 0 -- -- 50
2021-01-05 19:00:00 5.1 0 Calma 9 Nordeste 0 -- -- 47
2021-01-05 18:00:00 5.8 8 Nordeste 14 Nordeste 0 -- -- 45
2021-01-05 17:00:00 6.6 9 Nordeste 15 Nordeste 0 -- -- 43
2021-01-05 16:00:00 7.5 6 Este 15 Este 0 -- -- 36
2021-01-05 15:00:00 8.1 5 Nordeste 13 Nordeste 0 -- -- 34
2021-01-05 14:00:00 7.7 5 Norte 14 Nordeste 0 -- -- 34
2021-01-05 13:00:00 7.3 6 Norte 20 Noroeste 0 -- -- 37
2021-01-05 12:00:00 6.3 14 Norte 19 Norte 0 -- -- 40
2021-01-05 11:00:00 3.8 8 Noroeste 14 Noroeste 0 -- -- 56
2021-01-05 10:00:00 1.2 7 Noroeste 18 Noroeste 0 -- -- 65
2021-01-05 09:00:00 -0.2 11 Noroeste 14 Norte 0 -- -- 68
2021-01-05 08:00:00 -0.7 10 Norte 23 Norte 0 -- -- 68
2021-01-05 07:00:00 -0.4 11 Noroeste 16 Noroeste 0 -- -- 70
2021-01-05 06:00:00 0 6 Oeste 14 Noroeste 0 -- -- 71
2021-01-05 05:00:00 -0.8 5 Noroeste 10 Norte 0 -- -- 75
2021-01-05 04:00:00 -0.2 4 Noroeste 12 Norte 0 -- -- 80
2021-01-05 03:00:00 -0.2 5 Oeste 10 Noroeste 0 -- -- 80
2021-01-05 02:00:00 1.8 0 Calma 4 Sudeste 0 -- -- 72
2021-01-05 01:00:00 3.8 4 Norte 11 Norte 0 -- -- 67
2021-01-05 00:00:00 3.1 2 Sur 12 Oeste 0 -- -- 66
2021-01-04 23:00:00 3.6 9 Oeste 19 Noroeste 0 -- -- 67
2021-01-04 22:00:00 1.7 4 Noroeste 12 Noroeste 0 -- -- 65
2021-01-04 21:00:00 2.5 2 Sudoeste 5 Oeste 0 -- -- 59
2021-01-04 20:00:00 5.6 3 Sudoeste 15 Noroeste 0 -- -- 51
2021-01-04 19:00:00 6.5 5 Oeste 16 Oeste 0 -- -- 46
2021-01-04 18:00:00 7.5 11 Sudoeste 22 Oeste 0 -- -- 41
2021-01-04 17:00:00 9.8 17 Oeste 30 Sudoeste 0 -- -- 35
2021-01-04 16:00:00 10.1 15 Sudoeste 30 Sudoeste 0 -- -- 39
2021-01-04 15:00:00 9.9 17 Sudoeste 30 Sudoeste 0 -- -- 40
2021-01-04 14:00:00 9.5 16 Sudoeste 32 Oeste 0 -- -- 41
2021-01-04 13:00:00 8.2 21 Oeste 39 Sudoeste 0 -- -- 43
2021-01-04 12:00:00 6.9 25 Oeste 37 Sudoeste 0 -- -- 46
2021-01-04 11:00:00 5.7 17 Oeste 35 Oeste 0 -- -- 50
2021-01-04 10:00:00 3.8 3 Este 21 Sudoeste 0 -- -- 58
2021-01-04 09:00:00 1.4 7 Nordeste 24 Nordeste 0 -- -- 66
2021-01-04 08:00:00 2 10 Oeste 25 Oeste 0 -- -- 64
2021-01-04 07:00:00 1.8 11 Noroeste 35 Oeste 0 -- -- 62
2021-01-04 06:00:00 1.5 7 Oeste 29 Sudoeste 0 -- -- 64
2021-01-04 05:00:00 -0.2 3 Este 13 Nordeste 0 -- -- 66
2021-01-04 04:00:00 -0.5 8 Noroeste 13 Norte 0 -- -- 63
2021-01-04 03:00:00 -0.9 3 Oeste 15 Sur 0 -- -- 59
2021-01-04 02:00:00 -1.5 4 Oeste 11 Noroeste 0 -- -- 64
2021-01-04 01:00:00 -1.2 4 Oeste 18 Noroeste 0 -- -- 59
2021-01-04 00:00:00 1.4 12 Oeste 22 Oeste 0 -- -- 53
2021-01-03 23:00:00 0.4 10 Noroeste 19 Oeste 0 -- -- 52
2021-01-03 22:00:00 2.3 9 Noroeste 20 Sudoeste 0 -- -- 46
2021-01-03 21:00:00 3 7 Oeste 17 Oeste 0 -- -- 45
2021-01-03 20:00:00 3.9 8 Sudoeste 21 Oeste 0 -- -- 40
2021-01-03 19:00:00 5.1 3 Sudeste 30 Oeste 0 -- -- 38
2021-01-03 18:00:00 6.4 14 Oeste 32 Oeste 0 -- -- 37
2021-01-03 17:00:00 8.5 15 Oeste 32 Oeste 0 -- -- 32
2021-01-03 16:00:00 8.4 21 Noroeste 37 Oeste 0 -- -- 33
2021-01-03 15:00:00 8.6 24 Oeste 42 Sudoeste 0 -- -- 33
2021-01-03 14:00:00 8.5 19 Oeste 46 Oeste 0 -- -- 33
2021-01-03 13:00:00 7.8 22 Oeste 40 Oeste 0 -- -- 36
2021-01-03 12:00:00 6.4 23 Oeste 48 Oeste 0 -- -- 41
2021-01-03 11:00:00 5.2 15 Oeste 27 Oeste 0 -- -- 43
2021-01-03 10:00:00 3 13 Sudoeste 28 Sudoeste 0 -- -- 49
2021-01-03 09:00:00 1.8 17 Oeste 31 Oeste 0 -- -- 50
2021-01-03 08:00:00 1.2 13 Oeste 33 Oeste 0 -- -- 52
2021-01-03 07:00:00 1.7 24 Oeste 40 Oeste 0 -- -- 50
2021-01-03 06:00:00 1.4 26 Oeste 38 Oeste 0 -- -- 49
2021-01-03 05:00:00 1.8 19 Oeste 39 Noroeste 0 -- -- 46
2021-01-03 04:00:00 1.2 12 Oeste 36 Noroeste 0 -- -- 50
2021-01-03 03:00:00 2 18 Noroeste 33 Noroeste 0 -- -- 48
2021-01-03 02:00:00 1.9 24 Noroeste 33 Noroeste 0 -- -- 50
2021-01-03 01:00:00 1.8 17 Noroeste 42 Noroeste 0 -- -- 51
2021-01-03 00:00:00 2.4 27 Noroeste 42 Noroeste 0 -- -- 50
2021-01-02 23:00:00 2.8 19 Noroeste 37 Noroeste 0 -- -- 50
2021-01-02 22:00:00 3.8 26 Noroeste 40 Noroeste 0 -- -- 46
2021-01-02 21:00:00 3.3 17 Noroeste 32 Noroeste 0 -- -- 50
2021-01-02 20:00:00 2.9 19 Oeste 30 Noroeste 0 -- -- 53
2021-01-02 19:00:00 3.8 18 Oeste 33 Oeste 0 -- -- 50
2021-01-02 18:00:00 4.7 17 Noroeste 41 Noroeste 0 -- -- 43
2021-01-02 17:00:00 6.3 30 Noroeste 44 Oeste 0 -- -- 38
2021-01-02 16:00:00 6.8 24 Noroeste 43 Noroeste 0 -- -- 37
2021-01-02 15:00:00 7.7 18 Oeste 46 Oeste 0 -- -- 35
2021-01-02 14:00:00 7.4 24 Oeste 43 Sudoeste 0 -- -- 32